Time;durP1;ratioP1;P1;durP2;ratioP2;P2;SDS_P1;SDS_P2;PMS_P1;PMS_P2;Temp;Humidity;BMP_temperature;BMP_pressure;BME280_temperature;BME280_humidity;BME280_pressure;Samples;Min_cycle;Max_cycle;Signal;HPM_P1;HPM_P2
2023/03/09 00:02:23;;;;;;;2.70;1.80;;;12.30;99.90;;;;;;5003991;28;20180;-70
2023/03/09 00:04:48;;;;;;;2.87;2.10;;;12.10;99.90;;;;;;5003659;28;20183;-71
2023/03/09 00:07:14;;;;;;;2.63;1.57;;;12.20;99.90;;;;;;5003862;28;20212;-71
2023/03/09 00:09:40;;;;;;;2.17;1.40;;;12.20;99.90;;;;;;5003556;28;20595;-70
2023/03/09 00:12:06;;;;;;;4.00;2.13;;;12.10;99.90;;;;;;5003749;28;20180;-70
2023/03/09 00:14:31;;;;;;;3.20;1.47;;;12.10;99.90;;;;;;5003820;28;20203;-71
2023/03/09 00:16:57;;;;;;;2.60;2.00;;;12.20;99.90;;;;;;5003942;28;20460;-70
2023/03/09 00:19:26;;;;;;;2.60;1.57;;;12.10;99.90;;;;;;5003184;28;20176;-71
2023/03/09 00:21:53;;;;;;;3.60;1.60;;;12.00;99.90;;;;;;5003667;28;20536;-71
2023/03/09 00:24:24;;;;;;;1.90;1.50;;;11.90;99.90;;;;;;5003722;28;20451;-71
2023/03/09 00:26:58;;;;;;;5.33;1.20;;;11.90;99.90;;;;;;5003637;28;21778;-71
2023/03/09 00:29:26;;;;;;;3.03;1.27;;;11.80;99.90;;;;;;5003483;28;20905;-71
2023/03/09 00:31:52;;;;;;;2.10;1.20;;;11.80;99.90;;;;;;5003573;28;21004;-71
2023/03/09 00:34:17;;;;;;;1.77;1.50;;;11.80;99.90;;;;;;5003477;28;20527;-71
2023/03/09 00:36:43;;;;;;;1.30;1.13;;;11.90;99.90;;;;;;5003171;28;20557;-71
2023/03/09 00:39:11;;;;;;;1.87;1.43;;;12.00;99.90;;;;;;5003166;28;20234;-71
2023/03/09 00:41:37;;;;;;;2.00;1.57;;;11.90;99.90;;;;;;5003227;28;20234;-71
2023/03/09 00:44:04;;;;;;;2.33;2.10;;;11.90;99.90;;;;;;5003420;28;20714;-71
2023/03/09 00:46:31;;;;;;;1.23;1.10;;;11.90;99.90;;;;;;5003878;28;20857;-71
2023/03/09 00:48:56;;;;;;;2.10;1.47;;;11.80;99.90;;;;;;5002637;28;20426;-71
2023/03/09 00:51:24;;;;;;;1.70;1.03;;;11.80;99.90;;;;;;5003159;28;20412;-70
2023/03/09 00:53:49;;;;;;;1.20;0.80;;;11.80;99.90;;;;;;5002974;28;20190;-71
2023/03/09 00:56:18;;;;;;;2.03;1.00;;;11.80;99.90;;;;;;5002759;28;20796;-72
2023/03/09 00:58:44;;;;;;;1.70;0.80;;;11.80;99.90;;;;;;5003053;28;20326;-68
2023/03/09 01:01:12;;;;;;;1.63;0.80;;;11.70;99.90;;;;;;5003448;28;20515;-71
2023/03/09 01:03:38;;;;;;;1.43;0.80;;;11.60;99.90;;;;;;5003134;28;20181;-71
2023/03/09 01:06:04;;;;;;;0.90;0.67;;;11.60;99.90;;;;;;5003285;28;21081;-72
2023/03/09 01:08:31;;;;;;;1.60;0.80;;;11.60;99.90;;;;;;5001602;28;20473;-71
2023/03/09 01:10:56;;;;;;;1.30;0.60;;;11.50;99.90;;;;;;5003171;28;20864;-71
2023/03/09 01:13:22;;;;;;;1.27;0.60;;;11.40;99.90;;;;;;5003460;28;20418;-71
2023/03/09 01:15:48;;;;;;;3.00;0.70;;;11.30;99.90;;;;;;5002912;28;20627;-72
2023/03/09 01:18:13;;;;;;;1.20;0.80;;;11.20;99.90;;;;;;5002830;28;20172;-70
2023/03/09 01:20:39;;;;;;;1.53;0.50;;;11.10;99.90;;;;;;5002777;28;20189;-69
2023/03/09 01:23:04;;;;;;;1.80;0.60;;;10.90;99.90;;;;;;5003037;28;20188;-69
2023/03/09 01:25:30;;;;;;;1.37;0.50;;;10.80;99.90;;;;;;5001306;28;20188;-70
2023/03/09 01:27:55;;;;;;;1.00;0.50;;;10.80;99.90;;;;;;5001644;28;20184;-70
2023/03/09 01:30:21;;;;;;;0.80;0.50;;;10.80;99.90;;;;;;5002788;28;20188;-70
2023/03/09 01:32:47;;;;;;;0.70;0.50;;;10.80;99.90;;;;;;5003140;28;20637;-70
2023/03/09 01:35:12;;;;;;;1.20;0.70;;;10.80;99.90;;;;;;5002445;28;20200;-70
2023/03/09 01:37:38;;;;;;;1.10;0.50;;;10.70;99.90;;;;;;5002738;28;20212;-70
2023/03/09 01:40:06;;;;;;;0.80;0.50;;;10.70;99.90;;;;;;5002668;28;20308;-70
2023/03/09 01:42:33;;;;;;;0.80;0.50;;;10.80;99.90;;;;;;5002731;28;20553;-70
2023/03/09 01:45:25;;;;;;;0.70;0.50;;;10.90;99.90;;;;;;5002902;28;20813;-70
2023/03/09 01:47:52;;;;;;;0.97;0.50;;;10.90;99.90;;;;;;4979017;28;20428;-70
2023/03/09 01:50:21;;;;;;;0.70;0.40;;;10.90;99.90;;;;;;5002529;28;20807;-70
2023/03/09 01:52:49;;;;;;;1.60;0.73;;;10.90;99.90;;;;;;5003171;28;20418;-70
2023/03/09 01:55:23;;;;;;;1.00;0.53;;;10.90;99.90;;;;;;5002642;28;20888;-70
2023/03/09 01:57:59;;;;;;;1.43;0.53;;;10.90;99.90;;;;;;5002470;28;20414;-71
2023/03/09 02:00:25;;;;;;;1.53;0.50;;;10.80;99.90;;;;;;5003176;28;20733;-71
2023/03/09 02:03:15;;;;;;;0.90;0.50;;;10.80;99.90;;;;;;5005352;28;20507;-71
2023/03/09 02:05:56;;;;;;;6.03;0.90;;;10.70;99.90;;;;;;5006780;28;20514;-71
2023/03/09 02:08:24;;;;;;;0.80;0.60;;;10.70;99.90;;;;;;5006184;28;20413;-71
2023/03/09 02:10:57;;;;;;;0.70;0.50;;;10.80;99.90;;;;;;5007107;28;20424;-71
2023/03/09 02:13:33;;;;;;;0.80;0.70;;;10.70;99.90;;;;;;5005576;28;20952;-71
2023/03/09 02:15:59;;;;;;;1.20;0.50;;;10.70;99.90;;;;;;5004456;28;20453;-71
2023/03/09 02:18:25;;;;;;;1.07;0.63;;;10.70;99.90;;;;;;5005478;28;20419;-71
2023/03/09 02:20:53;;;;;;;1.37;0.80;;;10.60;99.90;;;;;;5004338;28;20190;-71
2023/03/09 02:23:32;;;;;;;1.37;0.70;;;10.50;99.90;;;;;;5004835;28;20427;-71
2023/03/09 02:26:10;;;;;;;0.90;0.57;;;10.60;99.90;;;;;;5005704;28;20472;-70
2023/03/09 02:28:36;;;;;;;1.70;0.60;;;10.50;99.90;;;;;;5005530;28;20406;-71
2023/03/09 02:31:02;;;;;;;0.70;0.40;;;10.50;99.90;;;;;;5005765;28;20952;-70
2023/03/09 02:33:30;;;;;;;1.53;0.77;;;10.50;99.90;;;;;;5005550;28;20257;-70
2023/03/09 02:35:57;;;;;;;1.57;0.70;;;10.60;99.90;;;;;;5005372;28;20872;-71
2023/03/09 02:38:23;;;;;;;1.23;0.70;;;10.60;99.90;;;;;;5005417;28;20409;-71
2023/03/09 02:40:49;;;;;;;0.73;0.50;;;10.70;99.90;;;;;;5005543;28;20413;-71
2023/03/09 02:43:19;;;;;;;1.67;0.50;;;10.60;99.90;;;;;;5006847;28;20177;-71
2023/03/09 02:45:46;;;;;;;3.63;0.80;;;10.70;99.90;;;;;;5006326;28;20887;-71
2023/03/09 02:48:11;;;;;;;1.47;0.70;;;10.60;99.90;;;;;;5007512;28;20914;-71
2023/03/09 02:50:37;;;;;;;1.20;0.50;;;10.60;99.90;;;;;;5005006;28;20472;-71
2023/03/09 02:53:04;;;;;;;1.63;0.67;;;10.60;99.90;;;;;;5006836;28;20238;-71
2023/03/09 02:55:29;;;;;;;0.70;0.50;;;10.70;99.90;;;;;;5005493;28;20362;-71
2023/03/09 02:57:55;;;;;;;1.13;0.70;;;10.70;99.90;;;;;;5005531;28;20485;-71
2023/03/09 03:00:21;;;;;;;1.27;0.70;;;10.70;99.90;;;;;;5005269;28;20168;-70
2023/03/09 03:02:47;;;;;;;1.63;0.60;;;10.80;99.90;;;;;;5005662;28;20711;-71
2023/03/09 03:05:13;;;;;;;0.93;0.60;;;10.80;99.90;;;;;;5003593;28;20517;-71
2023/03/09 03:07:38;;;;;;;0.80;0.50;;;10.70;99.90;;;;;;5004905;28;20200;-70
2023/03/09 03:10:04;;;;;;;2.87;1.40;;;10.80;99.90;;;;;;5005233;28;20216;-71
2023/03/09 03:12:30;;;;;;;1.73;1.00;;;10.80;99.90;;;;;;5006366;28;20265;-70
2023/03/09 03:14:56;;;;;;;1.93;0.60;;;10.90;99.90;;;;;;5004501;28;20211;-72
2023/03/09 03:17:21;;;;;;;3.00;1.50;;;10.90;99.90;;;;;;5005532;28;20445;-71
2023/03/09 03:19:47;;;;;;;4.10;2.70;;;10.90;99.90;;;;;;5005881;28;20188;-71
2023/03/09 03:22:13;;;;;;;3.47;2.00;;;10.90;99.90;;;;;;5005207;28;20628;-71
2023/03/09 03:24:39;;;;;;;2.20;1.10;;;10.90;99.90;;;;;;5005234;28;20230;-71
2023/03/09 03:27:05;;;;;;;2.43;1.50;;;11.00;99.90;;;;;;5005221;28;20202;-71
2023/03/09 03:29:31;;;;;;;1.00;0.60;;;11.10;99.90;;;;;;5005109;28;20924;-70
2023/03/09 03:31:57;;;;;;;1.53;0.90;;;11.00;99.90;;;;;;5004843;28;20238;-71
2023/03/09 03:34:22;;;;;;;0.90;0.60;;;11.10;99.90;;;;;;5003006;28;20409;-71
2023/03/09 03:36:48;;;;;;;0.90;0.50;;;10.90;99.90;;;;;;5004781;28;20225;-70
2023/03/09 03:39:14;;;;;;;1.63;0.60;;;10.80;99.90;;;;;;5004331;28;20176;-70
2023/03/09 03:41:39;;;;;;;0.80;0.60;;;10.70;99.90;;;;;;5004983;28;20201;-72
2023/03/09 03:44:05;;;;;;;1.77;0.80;;;10.70;99.90;;;;;;5004926;28;20633;-71
2023/03/09 03:46:30;;;;;;;1.47;0.60;;;10.70;99.90;;;;;;5005025;28;20701;-71
2023/03/09 03:48:56;;;;;;;1.67;0.50;;;10.60;99.90;;;;;;5004272;28;20599;-71
2023/03/09 03:51:23;;;;;;;1.53;0.60;;;10.50;99.90;;;;;;5004428;28;20180;-71
2023/03/09 03:53:49;;;;;;;0.70;0.50;;;10.50;99.90;;;;;;5004458;28;20187;-72
2023/03/09 03:56:14;;;;;;;2.20;0.70;;;10.40;99.90;;;;;;5004326;28;20451;-71
2023/03/09 03:58:40;;;;;;;0.80;0.50;;;10.50;99.90;;;;;;5004289;28;20983;-71
2023/03/09 04:01:06;;;;;;;1.00;0.60;;;10.50;99.90;;;;;;5004318;28;20260;-72
2023/03/09 04:03:32;;;;;;;1.40;0.70;;;10.50;99.90;;;;;;5004420;28;20267;-70
2023/03/09 04:05:58;;;;;;;2.90;0.90;;;10.40;99.90;;;;;;5004408;28;20489;-68
2023/03/09 04:08:23;;;;;;;1.40;0.77;;;10.40;99.90;;;;;;5004007;28;20453;-72
2023/03/09 04:10:49;;;;;;;1.50;0.90;;;10.50;99.90;;;;;;5004243;28;20218;-70
2023/03/09 04:13:15;;;;;;;1.57;0.90;;;10.40;99.90;;;;;;5003697;28;20187;-71
2023/03/09 04:15:40;;;;;;;3.87;0.90;;;10.40;99.90;;;;;;5003974;28;20226;-71
2023/03/09 04:18:07;;;;;;;3.13;1.17;;;10.40;99.90;;;;;;5004180;28;20190;-71
2023/03/09 04:20:34;;;;;;;4.37;1.60;;;10.40;99.90;;;;;;5003682;28;20186;-70
2023/03/09 04:23:00;;;;;;;1.93;1.23;;;10.40;99.90;;;;;;5003664;28;20444;-70
2023/03/09 04:25:26;;;;;;;3.13;1.73;;;10.40;99.90;;;;;;5003799;28;20450;-70
2023/03/09 04:27:52;;;;;;;8.03;1.70;;;10.40;99.90;;;;;;5004064;28;20184;-70
2023/03/09 04:30:20;;;;;;;3.20;1.20;;;10.40;99.90;;;;;;5004075;28;20444;-70
2023/03/09 04:32:47;;;;;;;5.67;1.53;;;10.40;99.90;;;;;;5002798;28;20885;-71
2023/03/09 04:35:14;;;;;;;4.87;1.50;;;10.50;99.90;;;;;;5002455;28;20485;-71
2023/03/09 04:37:39;;;;;;;3.60;1.60;;;10.50;99.90;;;;;;5003367;28;20456;-71
2023/03/09 04:40:05;;;;;;;3.40;1.50;;;10.50;99.90;;;;;;5004109;28;20415;-71
2023/03/09 04:42:31;;;;;;;7.10;2.07;;;10.50;99.90;;;;;;5003467;28;20179;-71
2023/03/09 04:44:57;;;;;;;3.60;1.80;;;10.70;99.90;;;;;;5003620;28;20582;-71
2023/03/09 04:47:22;;;;;;;3.73;1.70;;;10.50;99.90;;;;;;5003278;28;20445;-71
2023/03/09 04:49:48;;;;;;;4.20;1.80;;;10.40;99.90;;;;;;5004027;28;20684;-71
2023/03/09 04:52:14;;;;;;;5.23;1.83;;;10.50;99.90;;;;;;5003484;28;20722;-71
2023/03/09 04:54:40;;;;;;;3.37;1.60;;;10.40;99.90;;;;;;5003325;28;20621;-71
2023/03/09 04:57:06;;;;;;;4.40;1.97;;;10.40;99.90;;;;;;5002639;28;20669;-71
2023/03/09 04:59:32;;;;;;;8.70;2.50;;;10.40;99.90;;;;;;5003603;28;20182;-71
2023/03/09 05:01:57;;;;;;;7.03;2.50;;;10.40;99.90;;;;;;5003570;28;20168;-71
2023/03/09 05:04:23;;;;;;;5.03;2.23;;;10.40;99.90;;;;;;5003271;28;20452;-72
2023/03/09 05:06:48;;;;;;;8.40;1.97;;;10.40;99.90;;;;;;5003714;28;20309;-71
2023/03/09 05:09:14;;;;;;;4.67;1.67;;;10.30;99.90;;;;;;5003259;28;20634;-72
2023/03/09 05:11:41;;;;;;;7.97;2.20;;;10.30;99.90;;;;;;5003549;28;20183;-70
2023/03/09 05:14:06;;;;;;;6.40;2.10;;;10.30;99.90;;;;;;5002988;28;20235;-71
2023/03/09 05:16:32;;;;;;;4.00;1.63;;;10.40;99.90;;;;;;5003631;28;20493;-72
2023/03/09 05:18:58;;;;;;;2.53;1.47;;;10.40;99.90;;;;;;5002784;28;21109;-71
2023/03/09 05:21:23;;;;;;;10.20;2.50;;;10.40;99.90;;;;;;5003244;28;20263;-70
2023/03/09 05:23:49;;;;;;;9.70;2.90;;;10.40;99.90;;;;;;5003152;28;20184;-70
2023/03/09 05:26:14;;;;;;;4.70;2.10;;;10.40;99.90;;;;;;5002996;28;20200;-70
2023/03/09 05:28:40;;;;;;;5.60;1.73;;;10.50;99.90;;;;;;5003004;28;20245;-70
2023/03/09 05:31:10;;;;;;;5.20;2.20;;;10.50;99.90;;;;;;5003116;28;20988;-70
2023/03/09 05:33:36;;;;;;;4.67;2.30;;;10.50;99.90;;;;;;5003130;28;20266;-70
2023/03/09 05:36:03;;;;;;;5.10;1.80;;;10.50;99.90;;;;;;5002869;28;20558;-70
2023/03/09 05:38:29;;;;;;;7.50;2.30;;;10.60;99.90;;;;;;5006817;28;20442;-70
2023/03/09 05:40:54;;;;;;;7.50;2.07;;;10.60;99.90;;;;;;5007142;28;20946;-70
2023/03/09 05:43:20;;;;;;;4.67;2.50;;;10.70;99.90;;;;;;5006618;28;20639;-71
2023/03/09 05:45:54;;;;;;;3.67;1.43;;;10.80;99.90;;;;;;5007247;28;20678;-71
2023/03/09 05:48:20;;;;;;;4.70;2.10;;;10.70;99.90;;;;;;5006645;28;20509;-71
2023/03/09 05:50:45;;;;;;;3.20;2.03;;;10.80;99.90;;;;;;5005715;28;20415;-71
2023/03/09 05:53:11;;;;;;;3.23;2.20;;;10.80;99.90;;;;;;5005599;28;20184;-70
2023/03/09 05:55:36;;;;;;;12.50;2.93;;;10.80;99.90;;;;;;5006414;28;20216;-71
2023/03/09 05:58:02;;;;;;;6.10;2.17;;;10.70;99.90;;;;;;5005507;28;20564;-72
2023/03/09 06:00:28;;;;;;;4.43;1.93;;;10.60;99.90;;;;;;5007288;28;20259;-71
2023/03/09 06:02:53;;;;;;;5.00;2.40;;;10.70;99.90;;;;;;5006546;28;20709;-71
2023/03/09 06:05:19;;;;;;;3.60;2.40;;;10.70;99.90;;;;;;5006006;28;20278;-72
2023/03/09 06:07:44;;;;;;;7.47;2.67;;;10.80;99.90;;;;;;5006694;28;20187;-72
2023/03/09 06:10:11;;;;;;;4.90;2.43;;;10.70;99.90;;;;;;5006059;28;20657;-72
2023/03/09 06:12:37;;;;;;;5.73;2.43;;;10.70;99.90;;;;;;5022668;22;20230;-70
2023/03/09 06:15:03;;;;;;;7.83;2.67;;;10.80;99.90;;;;;;5006902;28;20992;-71
2023/03/09 06:17:29;;;;;;;7.33;2.70;;;11.00;99.90;;;;;;5007142;28;20207;-70
2023/03/09 06:19:54;;;;;;;7.17;2.60;;;11.20;99.90;;;;;;5006124;28;20956;-69
2023/03/09 06:22:20;;;;;;;7.90;2.73;;;11.30;99.90;;;;;;5006577;28;20204;-71
2023/03/09 06:24:45;;;;;;;7.60;2.70;;;11.30;99.90;;;;;;5006493;28;20179;-71
2023/03/09 06:27:11;;;;;;;6.63;2.20;;;11.30;99.90;;;;;;5006740;28;20224;-72
2023/03/09 06:29:37;;;;;;;5.70;2.03;;;11.40;99.90;;;;;;5005083;28;20710;-71
2023/03/09 06:32:03;;;;;;;5.60;1.93;;;11.30;99.90;;;;;;5006583;28;20467;-71
2023/03/09 06:34:29;;;;;;;8.47;2.40;;;11.30;99.90;;;;;;5004992;28;20294;-69
2023/03/09 06:36:55;;;;;;;6.23;2.10;;;11.20;99.90;;;;;;5006207;28;20421;-70
2023/03/09 06:39:20;;;;;;;7.07;2.37;;;11.00;99.90;;;;;;5005066;28;20786;-70
2023/03/09 06:41:47;;;;;;;7.77;2.23;;;11.00;99.90;;;;;;5006233;28;20197;-69
2023/03/09 06:44:13;;;;;;;12.90;2.80;;;11.10;99.90;;;;;;5006095;28;20186;-71
2023/03/09 06:46:38;;;;;;;5.57;2.13;;;11.10;99.90;;;;;;5006208;28;20414;-72
2023/03/09 06:49:04;;;;;;;4.70;2.00;;;11.20;99.90;;;;;;5005616;28;20183;-72
2023/03/09 06:51:29;;;;;;;30.03;19.77;;;11.10;99.90;;;;;;5006545;28;20601;-71
2023/03/09 06:53:55;;;;;;;6.73;2.60;;;11.30;99.90;;;;;;5006158;28;20176;-71
2023/03/09 06:56:20;;;;;;;5.67;2.43;;;11.20;99.90;;;;;;5006286;28;20182;-71
2023/03/09 06:58:46;;;;;;;3.83;2.00;;;11.30;99.90;;;;;;5007319;28;20183;-73
2023/03/09 07:01:15;;;;;;;4.20;2.03;;;11.30;99.90;;;;;;5005726;28;20198;-71
2023/03/09 07:03:41;;;;;;;3.83;1.80;;;11.40;99.90;;;;;;5005931;28;20245;-71
2023/03/09 07:06:07;;;;;;;6.97;2.03;;;11.30;99.90;;;;;;5005633;28;20782;-71
2023/03/09 07:08:33;;;;;;;8.73;2.33;;;11.50;99.90;;;;;;5005832;28;20428;-71
2023/03/09 07:10:59;;;;;;;8.83;2.10;;;11.60;99.90;;;;;;5005400;28;20429;-69
2023/03/09 07:13:24;;;;;;;2.43;1.40;;;11.50;99.90;;;;;;5005481;28;20239;-71
2023/03/09 07:15:50;;;;;;;4.20;1.93;;;11.50;99.90;;;;;;5005612;28;20450;-71
2023/03/09 07:18:16;;;;;;;4.50;1.80;;;11.50;99.90;;;;;;5005792;28;20207;-69
2023/03/09 07:20:42;;;;;;;5.00;1.60;;;11.50;99.90;;;;;;5005154;28;20457;-69
2023/03/09 07:23:09;;;;;;;5.87;2.30;;;11.70;99.90;;;;;;5004636;28;20215;-72
2023/03/09 07:25:36;;;;;;;3.70;1.40;;;11.80;99.90;;;;;;5005281;28;20177;-71
2023/03/09 07:28:04;;;;;;;4.67;1.63;;;11.90;99.90;;;;;;5005220;28;20418;-71
2023/03/09 07:30:30;;;;;;;4.17;1.50;;;12.00;99.90;;;;;;5004763;28;20449;-71
2023/03/09 07:32:56;;;;;;;5.37;2.03;;;12.10;99.90;;;;;;5004824;28;20443;-71
2023/03/09 07:35:21;;;;;;;7.00;1.83;;;12.00;99.90;;;;;;5004487;28;20461;-70
2023/03/09 07:37:47;;;;;;;7.90;2.27;;;12.00;99.90;;;;;;5005479;28;21147;-71
2023/03/09 07:40:12;;;;;;;5.47;1.73;;;12.10;99.90;;;;;;5004727;28;20176;-71
2023/03/09 07:42:38;;;;;;;4.67;1.50;;;12.10;99.90;;;;;;5004701;28;20257;-72
2023/03/09 07:45:05;;;;;;;4.30;1.50;;;12.20;99.90;;;;;;5004491;28;20268;-70
2023/03/09 07:47:32;;;;;;;7.63;2.10;;;12.30;99.90;;;;;;5004415;28;20457;-71
2023/03/09 07:49:58;;;;;;;5.30;2.80;;;12.40;99.90;;;;;;5004400;28;20425;-71
2023/03/09 07:52:30;;;;;;;6.17;1.83;;;12.50;99.90;;;;;;5003593;28;20430;-71
2023/03/09 07:54:56;;;;;;;4.80;1.93;;;12.30;99.90;;;;;;5004710;28;20476;-71
2023/03/09 07:57:23;;;;;;;4.60;1.20;;;12.20;99.90;;;;;;5004411;28;20921;-71
2023/03/09 07:59:52;;;;;;;6.00;1.87;;;12.30;99.90;;;;;;5003590;28;20439;-71
2023/03/09 08:02:19;;;;;;;6.47;2.00;;;12.40;99.90;;;;;;5002848;28;20432;-71
2023/03/09 08:04:45;;;;;;;6.00;1.67;;;12.60;99.90;;;;;;5004198;28;20438;-72
2023/03/09 08:07:11;;;;;;;5.17;1.57;;;12.70;99.90;;;;;;5005036;28;20455;-70
2023/03/09 08:09:37;;;;;;;7.57;1.60;;;12.90;99.90;;;;;;5004358;28;20231;-70
2023/03/09 08:12:03;;;;;;;5.70;2.00;;;12.80;99.90;;;;;;5002558;28;20339;-69
2023/03/09 08:14:29;;;;;;;6.07;1.70;;;12.70;99.90;;;;;;5003998;28;20512;-69
2023/03/09 08:16:54;;;;;;;9.43;2.03;;;12.50;99.90;;;;;;5003531;28;20425;-70
2023/03/09 08:19:21;;;;;;;3.67;1.70;;;12.40;99.90;;;;;;5003594;28;20187;-69
2023/03/09 08:21:48;;;;;;;4.33;1.50;;;12.40;99.90;;;;;;5003884;28;20200;-69
2023/03/09 08:24:14;;;;;;;5.63;2.60;;;12.50;99.90;;;;;;5003767;28;20435;-70
2023/03/09 08:26:40;;;;;;;2.60;1.30;;;12.70;99.90;;;;;;5002563;28;20831;-70
2023/03/09 08:29:06;;;;;;;5.73;1.63;;;12.60;99.90;;;;;;5003824;28;20766;-71
2023/03/09 08:31:32;;;;;;;6.90;1.63;;;12.70;99.90;;;;;;5003854;28;20187;-70
2023/03/09 08:33:58;;;;;;;6.83;1.70;;;12.70;99.90;;;;;;5003607;28;20183;-71
2023/03/09 08:36:23;;;;;;;4.40;1.60;;;12.60;99.90;;;;;;5004209;28;20422;-70
2023/03/09 08:38:49;;;;;;;6.87;1.33;;;12.70;99.90;;;;;;5004740;28;20559;-71
2023/03/09 08:41:16;;;;;;;3.23;1.73;;;12.90;99.90;;;;;;5005063;28;20179;-71
2023/03/09 08:43:41;;;;;;;3.17;1.73;;;13.00;99.90;;;;;;5004301;28;20881;-71
2023/03/09 08:46:07;;;;;;;3.40;1.37;;;12.90;99.90;;;;;;5003471;28;20450;-71
2023/03/09 08:48:33;;;;;;;3.10;1.50;;;12.90;99.90;;;;;;5003870;28;20175;-73
2023/03/09 08:51:00;;;;;;;4.70;1.47;;;13.00;99.90;;;;;;5003539;28;20419;-73
2023/03/09 08:53:26;;;;;;;4.10;1.40;;;12.90;99.90;;;;;;5004272;28;20532;-73
2023/03/09 08:55:52;;;;;;;5.50;1.97;;;13.00;99.90;;;;;;5003607;28;20546;-70
2023/03/09 08:58:17;;;;;;;2.63;1.23;;;13.10;99.90;;;;;;5003441;28;20453;-71
2023/03/09 09:00:43;;;;;;;3.00;1.50;;;13.00;99.90;;;;;;5003645;28;20182;-70
2023/03/09 09:03:08;;;;;;;3.60;1.30;;;13.00;99.90;;;;;;5003686;28;20253;-73
2023/03/09 09:05:34;;;;;;;4.23;1.27;;;13.30;99.90;;;;;;5003685;28;20280;-71
2023/03/09 09:08:00;;;;;;;4.30;1.07;;;13.50;99.90;;;;;;5003817;28;20263;-71
2023/03/09 09:10:26;;;;;;;3.20;1.23;;;13.60;99.90;;;;;;5004513;28;20484;-71
2023/03/09 09:12:51;;;;;;;3.37;1.40;;;13.80;99.90;;;;;;5007276;28;20230;-72
2023/03/09 09:15:17;;;;;;;2.13;1.50;;;13.80;99.90;;;;;;5008025;28;20201;-70
2023/03/09 09:17:43;;;;;;;4.03;1.63;;;13.60;99.90;;;;;;5008919;28;20181;-73
2023/03/09 09:20:10;;;;;;;4.37;1.30;;;13.20;99.90;;;;;;5009256;28;20420;-72
2023/03/09 09:22:35;;;;;;;2.13;1.47;;;12.90;99.90;;;;;;5007385;28;20676;-69
2023/03/09 09:25:02;;;;;;;4.50;1.60;;;12.80;99.90;;;;;;5007947;28;20546;-70
2023/03/09 09:27:27;;;;;;;4.20;1.77;;;12.50;99.90;;;;;;5007455;28;20194;-72
2023/03/09 09:29:53;;;;;;;5.90;1.47;;;12.20;99.90;;;;;;5007195;28;20430;-70
2023/03/09 09:32:19;;;;;;;5.53;1.70;;;12.10;99.90;;;;;;5007436;28;20283;-69
2023/03/09 09:34:45;;;;;;;2.20;1.50;;;12.40;99.90;;;;;;5006750;28;20235;-71
2023/03/09 09:37:11;;;;;;;3.23;1.40;;;12.70;99.90;;;;;;5006762;28;20446;-73
2023/03/09 09:39:38;;;;;;;4.27;1.30;;;13.00;99.90;;;;;;5007229;28;20191;-71
2023/03/09 09:42:10;;;;;;;5.73;2.27;;;13.10;99.90;;;;;;5005223;28;20477;-70
2023/03/09 09:44:48;;;;;;;3.17;2.07;;;13.20;99.90;;;;;;5006652;28;20787;-73
2023/03/09 09:47:19;;;;;;;3.27;1.33;;;13.40;99.90;;;;;;5007375;28;20406;-74
2023/03/09 09:49:49;;;;;;;3.50;1.70;;;13.60;99.90;;;;;;5006726;28;20439;-75
2023/03/09 09:52:33;;;;;;;2.43;1.50;;;13.70;99.90;;;;;;5006861;28;20441;-72
2023/03/09 09:55:23;;;;;;;2.90;1.13;;;13.80;99.90;;;;;;5006697;28;20455;-71
2023/03/09 09:58:08;;;;;;;1.33;1.00;;;13.60;99.90;;;;;;5006914;28;20821;-74
2023/03/09 10:00:43;;;;;;;1.63;1.20;;;13.10;99.90;;;;;;5005580;28;20431;-72
2023/03/09 10:03:24;;;;;;;2.03;0.97;;;12.90;99.90;;;;;;5006104;28;20437;-72
2023/03/09 10:05:53;;;;;;;3.40;1.33;;;13.10;99.90;;;;;;5006246;28;20421;-73
2023/03/09 10:08:48;;;;;;;2.77;1.20;;;13.30;99.90;;;;;;5004301;28;20524;-73
2023/03/09 10:11:26;;;;;;;2.37;1.20;;;13.40;99.90;;;;;;5006601;28;20413;-72
2023/03/09 10:14:20;;;;;;;4.93;1.10;;;13.50;99.90;;;;;;5006273;28;20419;-73
2023/03/09 10:16:56;;;;;;;2.23;1.23;;;13.60;99.90;;;;;;5005933;28;20585;-73
2023/03/09 10:19:40;;;;;;;2.60;1.07;;;13.60;99.90;;;;;;5006304;28;20412;-75
2023/03/09 10:22:12;;;;;;;2.60;1.03;;;13.80;99.90;;;;;;5004735;28;20449;-71
2023/03/09 10:24:50;;;;;;;2.90;1.00;;;13.90;99.90;;;;;;5005330;28;20881;-72
2023/03/09 10:27:25;;;;;;;2.67;1.30;;;13.80;99.90;;;;;;5004725;28;20960;-74
2023/03/09 10:29:56;;;;;;;6.00;1.60;;;13.90;99.90;;;;;;5006340;28;20425;-72
2023/03/09 10:32:43;;;;;;;2.50;1.10;;;14.20;99.90;;;;;;5006055;28;20548;-73
2023/03/09 10:35:21;;;;;;;4.40;1.20;;;14.10;99.90;;;;;;5005953;28;20452;-70
2023/03/09 10:37:50;;;;;;;2.87;1.30;;;14.30;99.90;;;;;;5006079;28;20406;-72
2023/03/09 10:40:24;;;;;;;4.80;1.10;;;13.90;99.90;;;;;;5006557;28;20418;-72
2023/03/09 10:42:50;;;;;;;2.50;1.10;;;13.90;99.90;;;;;;5005713;28;20936;-72
2023/03/09 10:45:26;;;;;;;8.70;1.30;;;13.80;99.90;;;;;;5005697;28;20416;-72
2023/03/09 10:47:55;;;;;;;2.67;1.10;;;14.00;99.90;;;;;;5004048;28;20434;-70
2023/03/09 10:50:24;;;;;;;3.10;1.13;;;14.00;99.90;;;;;;5005307;28;21313;-72
2023/03/09 10:52:51;;;;;;;5.33;1.20;;;14.10;99.90;;;;;;5005404;28;20478;-70
2023/03/09 10:55:27;;;;;;;3.13;1.20;;;14.00;99.90;;;;;;5005112;28;20466;-71
2023/03/09 10:58:13;;;;;;;2.80;1.30;;;13.70;99.90;;;;;;5005873;28;20730;-71
2023/03/09 11:01:02;;;;;;;3.47;1.10;;;13.80;99.90;;;;;;5005160;28;20401;-72
2023/03/09 11:03:42;;;;;;;6.90;1.80;;;13.90;99.90;;;;;;5005243;28;20431;-75
2023/03/09 11:06:12;;;;;;;5.00;1.33;;;13.70;99.90;;;;;;5004935;28;20461;-76
2023/03/09 11:08:40;;;;;;;5.27;1.40;;;13.60;99.90;;;;;;5004821;28;20419;-73
2023/03/09 11:11:15;;;;;;;7.20;1.60;;;13.70;99.90;;;;;;5005200;28;20425;-73
2023/03/09 11:13:47;;;;;;;4.27;1.43;;;14.10;99.90;;;;;;5005558;28;20446;-74
2023/03/09 11:16:19;;;;;;;4.57;1.50;;;14.60;99.90;;;;;;5005170;28;20974;-72
2023/03/09 11:18:45;;;;;;;4.23;1.83;;;14.50;99.90;;;;;;5005137;28;20438;-72
2023/03/09 11:21:23;;;;;;;4.27;1.80;;;14.70;99.90;;;;;;5005025;28;20489;-71
2023/03/09 11:23:53;;;;;;;4.23;1.30;;;15.00;99.90;;;;;;5004912;28;20791;-72
2023/03/09 11:26:34;;;;;;;3.60;1.37;;;15.50;99.90;;;;;;5004951;28;20416;-71
2023/03/09 11:29:19;;;;;;;2.60;1.17;;;16.40;99.90;;;;;;5004523;28;20786;-71
2023/03/09 11:31:45;;;;;;;3.97;1.83;;;17.00;99.90;;;;;;5004743;28;21463;-71
2023/03/09 11:34:33;;;;;;;3.70;2.03;;;17.80;99.90;;;;;;5003605;28;20415;-73
2023/03/09 11:37:07;;;;;;;1.97;1.30;;;18.30;99.90;;;;;;5004752;28;20200;-71
2023/03/09 11:39:58;;;;;;;4.73;1.93;;;18.00;99.50;;;;;;5004370;28;20406;-70
2023/03/09 11:42:38;;;;;;;3.13;1.60;;;17.00;99.90;;;;;;4998894;28;20463;-70
2023/03/09 11:45:12;;;;;;;7.27;4.00;;;17.30;99.90;;;;;;5004558;28;20399;-74
2023/03/09 11:47:44;;;;;;;2.80;1.40;;;19.10;98.80;;;;;;5004711;28;20414;-74
2023/03/09 11:50:16;;;;;;;3.07;1.20;;;18.30;97.80;;;;;;5004460;28;20403;-74
2023/03/09 11:52:56;;;;;;;5.70;1.83;;;17.90;99.00;;;;;;5002766;28;20454;-73
2023/03/09 11:55:32;;;;;;;2.90;1.20;;;17.10;99.50;;;;;;5003869;28;20928;-70
2023/03/09 11:58:02;;;;;;;4.33;1.43;;;17.10;99.90;;;;;;5004581;28;20468;-70
2023/03/09 12:00:30;;;;;;;5.50;1.13;;;17.20;99.80;;;;;;5004450;28;20906;-70
2023/03/09 12:03:00;;;;;;;6.10;2.27;;;16.80;99.30;;;;;;5004463;28;20447;-69
2023/03/09 12:05:33;;;;;;;17.47;1.50;;;16.30;99.90;;;;;;5004149;28;20421;-70
2023/03/09 12:08:14;;;;;;;3.47;1.17;;;15.80;99.90;;;;;;5003178;28;20464;-71
2023/03/09 12:10:48;;;;;;;4.87;1.97;;;15.40;99.90;;;;;;5003901;28;20422;-72
2023/03/09 12:13:36;;;;;;;2.40;1.20;;;15.50;99.90;;;;;;5003584;28;20472;-71
2023/03/09 12:16:06;;;;;;;2.73;1.10;;;15.20;99.90;;;;;;5004104;28;20444;-71
2023/03/09 12:18:36;;;;;;;3.00;1.50;;;15.20;99.90;;;;;;5003996;28;20408;-71
2023/03/09 12:21:05;;;;;;;3.30;1.53;;;15.00;99.90;;;;;;5003984;28;20493;-71
2023/03/09 12:23:39;;;;;;;3.23;1.40;;;15.50;99.90;;;;;;5029529;22;20998;-67
2023/03/09 12:26:29;;;;;;;4.57;1.40;;;16.60;99.90;;;;;;5004251;28;20418;-68
2023/03/09 12:29:03;;;;;;;2.90;1.10;;;17.60;99.70;;;;;;5004173;28;20416;-68
2023/03/09 12:31:36;;;;;;;2.70;1.37;;;18.50;98.40;;;;;;5003861;28;20796;-66
2023/03/09 12:34:05;;;;;;;3.47;1.40;;;19.10;97.00;;;;;;5002653;28;20434;-68
2023/03/09 12:36:39;;;;;;;3.47;1.50;;;18.50;96.70;;;;;;5002624;28;20915;-67
2023/03/09 12:39:27;;;;;;;4.60;1.87;;;18.10;97.20;;;;;;5003642;28;20395;-67
2023/03/09 12:42:03;;;;;;;5.30;1.80;;;18.30;97.10;;;;;;5003920;28;20481;-69
2023/03/09 12:44:44;;;;;;;2.33;1.10;;;17.30;97.60;;;;;;5004022;28;20421;-68
2023/03/09 12:47:35;;;;;;;6.13;1.13;;;17.50;98.10;;;;;;5002174;28;20423;-69
2023/03/09 12:50:04;;;;;;;2.17;1.00;;;18.10;97.40;;;;;;5004326;28;20454;-68
2023/03/09 12:52:59;;;;;;;3.07;1.67;;;18.60;97.10;;;;;;5003459;28;20437;-70
2023/03/09 12:55:55;;;;;;;4.10;1.40;;;18.50;97.00;;;;;;5003358;28;20442;-68